createdAt,value
2022-12-18T00:01:33.551Z,27.80
2022-12-18T00:04:04.145Z,27.80
2022-12-18T00:06:33.841Z,28.20
2022-12-18T00:09:03.132Z,28.30
2022-12-18T00:11:33.042Z,28.20
2022-12-18T00:14:02.163Z,28.10
2022-12-18T00:16:31.416Z,27.80
2022-12-18T00:19:00.695Z,27.70
2022-12-18T00:21:30.714Z,27.60
2022-12-18T00:24:00.208Z,27.80
2022-12-18T00:26:31.137Z,28.10
2022-12-18T00:29:05.295Z,28.20
2022-12-18T00:31:33.886Z,28.20
2022-12-18T00:34:02.864Z,27.90
2022-12-18T00:36:35.657Z,27.60
2022-12-18T00:39:06.189Z,27.50
2022-12-18T00:41:34.874Z,27.90
2022-12-18T00:44:03.799Z,28.00
2022-12-18T00:46:32.402Z,28.10
2022-12-18T00:49:01.438Z,28.10
2022-12-18T00:51:29.856Z,28.00
2022-12-18T00:53:58.234Z,27.90
2022-12-18T00:56:26.806Z,27.80
2022-12-18T00:58:55.691Z,27.70
2022-12-18T01:01:24.276Z,28.00
2022-12-18T01:03:52.545Z,28.30
2022-12-18T01:06:21.816Z,28.50
2022-12-18T01:08:52.331Z,28.30
2022-12-18T01:11:22.202Z,28.00
2022-12-18T01:13:50.643Z,27.80
2022-12-18T01:16:19.159Z,27.80
2022-12-18T01:18:47.901Z,27.70
2022-12-18T01:21:17.770Z,27.80
2022-12-18T01:23:46.166Z,27.90
2022-12-18T01:26:17.185Z,28.10
2022-12-18T01:28:45.884Z,28.20
2022-12-18T01:31:23.235Z,27.90
2022-12-18T01:33:52.926Z,27.60
2022-12-18T01:36:24.802Z,27.40
2022-12-18T01:38:53.978Z,27.10
2022-12-18T01:41:25.607Z,27.30
2022-12-18T01:43:57.070Z,27.40
2022-12-18T01:46:26.543Z,27.30
2022-12-18T01:49:02.743Z,27.10
2022-12-18T01:51:32.326Z,26.80
2022-12-18T01:54:01.199Z,26.70
2022-12-18T01:56:29.514Z,26.70
2022-12-18T01:59:07.538Z,26.70
2022-12-18T02:01:36.363Z,27.00
2022-12-18T02:04:26.594Z,26.80
2022-12-18T02:07:15.614Z,26.60
2022-12-18T02:09:51.017Z,26.50
2022-12-18T02:12:29.314Z,26.40
2022-12-18T02:15:15.905Z,26.70
2022-12-18T02:18:12.637Z,27.00
2022-12-18T02:21:16.171Z,26.80
2022-12-18T02:23:51.781Z,26.50
2022-12-18T02:26:29.172Z,26.40
2022-12-18T02:29:11.961Z,26.30
2022-12-18T02:31:51.417Z,26.50
2022-12-18T02:34:23.829Z,26.70
2022-12-18T02:36:55.348Z,26.80
2022-12-18T02:39:26.797Z,26.50
2022-12-18T02:42:02.867Z,26.20
2022-12-18T02:44:31.209Z,26.20
2022-12-18T02:46:59.973Z,26.20
2022-12-18T02:49:36.676Z,26.30
2022-12-18T02:52:36.410Z,26.60
2022-12-18T02:55:10.424Z,27.00
2022-12-18T02:58:02.907Z,26.80
2022-12-18T03:00:49.898Z,26.50
2022-12-18T03:03:32.916Z,26.30
2022-12-18T03:06:07.737Z,26.40
2022-12-18T03:08:49.216Z,26.60
2022-12-18T03:11:19.893Z,26.80
2022-12-18T03:13:57.403Z,26.50
2022-12-18T03:16:30.087Z,26.30
2022-12-18T03:19:03.063Z,26.20
2022-12-18T03:21:57.617Z,26.10
2022-12-18T03:24:30.490Z,26.20
2022-12-18T03:27:06.765Z,26.50
2022-12-18T03:30:01.440Z,26.40
2022-12-18T03:32:34.116Z,26.30
2022-12-18T03:35:07.466Z,26.30
2022-12-18T03:37:38.392Z,26.20
2022-12-18T03:40:08.255Z,26.30
2022-12-18T03:42:47.741Z,26.50
2022-12-18T03:45:22.592Z,26.70
2022-12-18T03:48:02.886Z,26.80
2022-12-18T03:50:36.301Z,26.50
2022-12-18T03:53:22.789Z,26.40
2022-12-18T03:55:53.159Z,26.30
2022-12-18T03:58:26.525Z,26.30
2022-12-18T04:01:05.610Z,26.30
2022-12-18T04:03:39.373Z,26.50
2022-12-18T04:06:10.524Z,26.50
2022-12-18T04:08:41.847Z,26.30
2022-12-18T04:11:13.204Z,26.20
2022-12-18T04:13:43.910Z,26.10
2022-12-18T04:16:21.277Z,26.30
2022-12-18T04:18:53.817Z,26.30
2022-12-18T04:21:23.732Z,26.30
2022-12-18T04:23:52.007Z,26.10
2022-12-18T04:26:22.888Z,26.00
2022-12-18T04:29:11.232Z,26.00
2022-12-18T04:31:40.079Z,26.00
2022-12-18T04:34:08.665Z,26.20
2022-12-18T04:36:43.265Z,26.30
2022-12-18T04:39:11.568Z,26.20
2022-12-18T04:41:39.748Z,26.10
2022-12-18T04:44:07.979Z,25.90
2022-12-18T04:46:36.297Z,25.90
2022-12-18T04:49:04.516Z,25.80
2022-12-18T04:51:32.862Z,25.90
2022-12-18T04:54:00.937Z,26.10
2022-12-18T04:56:29.378Z,25.90
2022-12-18T04:58:57.625Z,25.70
2022-12-18T05:01:30.941Z,25.60
2022-12-18T05:04:03.314Z,25.50
2022-12-18T05:06:31.462Z,25.50
2022-12-18T05:08:59.939Z,25.80
2022-12-18T05:11:28.259Z,26.00
2022-12-18T05:13:59.704Z,26.10
2022-12-18T05:16:27.997Z,25.90
2022-12-18T05:18:56.449Z,25.80
2022-12-18T05:21:24.822Z,25.60
2022-12-18T05:23:53.107Z,25.50
2022-12-18T05:26:21.422Z,25.70
2022-12-18T05:28:49.715Z,25.90
2022-12-18T05:31:17.865Z,25.90
2022-12-18T05:33:46.117Z,25.60
2022-12-18T05:36:17.379Z,25.50
2022-12-18T05:38:45.549Z,25.50
2022-12-18T05:41:13.715Z,25.40
2022-12-18T05:43:43.172Z,25.50
2022-12-18T05:46:16.109Z,25.80
2022-12-18T05:48:45.422Z,26.00
2022-12-18T05:51:16.380Z,26.10
2022-12-18T05:53:45.476Z,25.90
2022-12-18T05:56:23.266Z,25.70
2022-12-18T05:58:55.586Z,25.60
2022-12-18T06:01:26.936Z,25.50
2022-12-18T06:03:56.573Z,25.50
2022-12-18T06:06:27.593Z,25.80
2022-12-18T06:08:56.953Z,25.90
2022-12-18T06:11:27.637Z,25.70
2022-12-18T06:13:59.175Z,25.60
2022-12-18T06:16:29.331Z,25.60
2022-12-18T06:19:01.872Z,25.60
2022-12-18T06:21:30.542Z,25.90
2022-12-18T06:24:01.272Z,25.60
2022-12-18T06:26:29.382Z,25.40
2022-12-18T06:28:57.707Z,25.00
2022-12-18T06:31:26.949Z,24.90
2022-12-18T06:33:55.421Z,24.80
2022-12-18T06:36:23.652Z,24.70
2022-12-18T06:38:51.978Z,24.70
2022-12-18T06:41:23.063Z,24.70
2022-12-18T06:43:52.248Z,24.90
2022-12-18T06:46:23.113Z,24.80
2022-12-18T06:48:52.217Z,24.80
2022-12-18T06:51:22.574Z,24.70
2022-12-18T06:53:50.991Z,24.80
2022-12-18T06:56:19.563Z,25.00
2022-12-18T06:58:47.766Z,25.10
2022-12-18T07:01:18.984Z,25.20
2022-12-18T07:03:47.530Z,25.10
2022-12-18T07:06:21.374Z,25.00
2022-12-18T07:08:51.384Z,25.00
2022-12-18T07:11:21.039Z,25.10
2022-12-18T07:13:49.582Z,25.10
2022-12-18T07:16:24.760Z,25.30
2022-12-18T07:18:56.396Z,25.30
2022-12-18T07:21:25.520Z,25.20
2022-12-18T07:23:53.961Z,25.20
2022-12-18T07:26:23.511Z,25.10
2022-12-18T07:28:56.019Z,25.10
2022-12-18T07:31:24.876Z,25.10
2022-12-18T07:33:53.923Z,25.30
2022-12-18T07:36:22.355Z,25.50
2022-12-18T07:38:51.688Z,25.40
2022-12-18T07:41:20.831Z,25.40
2022-12-18T07:43:49.458Z,25.50
2022-12-18T07:46:19.727Z,25.90
2022-12-18T07:48:49.968Z,26.10
2022-12-18T07:51:19.748Z,26.60
2022-12-18T07:53:49.717Z,26.90
2022-12-18T07:56:30.324Z,26.90
2022-12-18T07:59:00.841Z,27.10
2022-12-18T08:01:32.036Z,27.10
2022-12-18T08:04:00.451Z,27.40
2022-12-18T08:06:28.583Z,28.10
2022-12-18T08:08:57.873Z,28.50
2022-12-18T08:11:30.165Z,28.00
2022-12-18T08:13:59.323Z,28.50
2022-12-18T08:16:28.348Z,29.50
2022-12-18T08:18:56.978Z,30.20
2022-12-18T08:21:31.290Z,30.60
2022-12-18T08:24:01.762Z,31.30
2022-12-18T08:26:33.116Z,31.20
2022-12-18T08:29:02.143Z,30.60
2022-12-18T08:31:31.801Z,31.90
2022-12-18T08:34:00.341Z,32.20
2022-12-18T08:36:28.691Z,31.20
2022-12-18T08:38:57.957Z,31.90
2022-12-18T08:41:27.187Z,33.30
2022-12-18T08:43:55.435Z,34.40
2022-12-18T08:46:27.133Z,35.50
2022-12-18T08:48:56.188Z,33.90
2022-12-18T08:51:24.489Z,32.80
2022-12-18T08:53:52.997Z,31.00
2022-12-18T08:56:21.414Z,29.80
2022-12-18T08:58:52.375Z,30.50
2022-12-18T09:01:20.713Z,30.40
2022-12-18T09:03:49.894Z,29.80
2022-12-18T09:06:23.306Z,29.60
2022-12-18T09:08:51.783Z,29.60
2022-12-18T09:11:24.015Z,30.00
2022-12-18T09:13:53.336Z,30.40
2022-12-18T09:16:25.992Z,30.30
2022-12-18T09:18:58.381Z,30.50
2022-12-18T09:21:27.255Z,31.00
2022-12-18T09:23:57.065Z,30.90
2022-12-18T09:26:26.745Z,30.70
2022-12-18T09:28:55.509Z,30.10
2022-12-18T09:31:24.949Z,30.10
2022-12-18T09:33:53.257Z,30.80
2022-12-18T09:36:21.762Z,31.20
2022-12-18T09:38:50.000Z,31.10
2022-12-18T09:41:24.355Z,30.80
2022-12-18T09:44:02.171Z,30.70
2022-12-18T09:46:45.757Z,30.70
2022-12-18T09:49:19.492Z,31.10
2022-12-18T09:52:01.395Z,31.10
2022-12-18T09:54:40.422Z,31.40
2022-12-18T09:57:23.814Z,31.30
2022-12-18T10:00:06.686Z,30.60
2022-12-18T10:02:39.771Z,29.80
2022-12-18T10:05:17.626Z,29.70
2022-12-18T10:07:49.006Z,29.20
2022-12-18T10:10:20.387Z,29.70
2022-12-18T10:13:04.336Z,30.10
2022-12-18T10:16:08.077Z,30.10
2022-12-18T10:19:08.724Z,30.00
2022-12-18T10:21:52.557Z,29.60
2022-12-18T10:24:27.981Z,30.00
2022-12-18T10:27:20.885Z,30.70
2022-12-18T10:29:49.925Z,31.30
2022-12-18T10:32:30.998Z,31.50
2022-12-18T10:35:00.639Z,31.10
2022-12-18T10:37:31.496Z,31.10
2022-12-18T10:40:18.223Z,31.20
2022-12-18T10:43:06.352Z,31.00
2022-12-18T10:45:34.678Z,31.10
2022-12-18T10:48:02.963Z,31.70
2022-12-18T10:53:29.436Z,30.90
2022-12-18T10:56:05.440Z,31.30
2022-12-18T10:58:39.851Z,31.20
2022-12-18T11:01:20.057Z,30.90
2022-12-18T11:04:11.491Z,31.10
2022-12-18T11:07:04.856Z,31.00
2022-12-18T11:09:38.568Z,31.10
2022-12-18T11:12:18.524Z,31.20
2022-12-18T11:14:50.907Z,31.00
2022-12-18T11:17:26.504Z,30.40
2022-12-18T11:20:22.365Z,30.00
2022-12-18T11:23:05.592Z,30.60
2022-12-18T11:25:36.326Z,31.00
2022-12-18T11:28:06.895Z,31.50
2022-12-18T11:30:38.703Z,31.20
2022-12-18T11:33:13.271Z,30.80
2022-12-18T11:36:03.658Z,30.40
2022-12-18T11:38:36.769Z,31.00
2022-12-18T11:41:32.253Z,31.30
2022-12-18T11:44:05.558Z,31.60
2022-12-18T11:46:43.354Z,31.40
2022-12-18T11:49:35.014Z,31.40
2022-12-18T11:52:25.317Z,31.20
2022-12-18T11:54:55.273Z,31.30
2022-12-18T11:57:26.541Z,31.50
2022-12-18T11:59:57.995Z,31.50
2022-12-18T12:03:00.561Z,31.80
2022-12-18T12:05:59.046Z,31.90
2022-12-18T12:08:44.400Z,32.00
2022-12-18T12:11:23.229Z,31.50
2022-12-18T12:14:14.008Z,31.10
2022-12-18T12:16:54.465Z,30.80
2022-12-18T12:19:43.714Z,31.00
2022-12-18T12:22:26.404Z,31.40
2022-12-18T12:25:25.880Z,31.60
2022-12-18T12:28:35.847Z,31.80
2022-12-18T12:31:17.738Z,31.70
2022-12-18T12:34:13.945Z,31.50
2022-12-18T12:36:48.298Z,31.40
2022-12-18T12:39:21.010Z,31.60
2022-12-18T12:41:49.869Z,32.10
2022-12-18T12:44:52.774Z,32.10
2022-12-18T12:47:43.559Z,32.00
2022-12-18T12:50:22.014Z,31.10
2022-12-18T12:52:55.413Z,30.50
2022-12-18T12:55:29.493Z,30.90
2022-12-18T12:58:21.444Z,31.40
2022-12-18T13:01:17.269Z,32.00
2022-12-18T13:04:17.961Z,32.00
2022-12-18T13:06:49.218Z,31.80
2022-12-18T13:09:18.075Z,31.20
2022-12-18T13:11:49.207Z,31.20
2022-12-18T13:14:34.317Z,31.50
2022-12-18T13:17:20.815Z,32.00
2022-12-18T13:19:54.061Z,32.30
2022-12-18T13:22:25.864Z,32.40
2022-12-18T13:24:57.621Z,32.20
2022-12-18T13:27:42.457Z,32.40
2022-12-18T13:30:49.396Z,31.90
2022-12-18T13:33:19.001Z,31.50
2022-12-18T13:35:50.476Z,31.70
2022-12-18T13:38:35.405Z,31.80
2022-12-18T13:41:08.132Z,31.80
2022-12-18T13:43:48.785Z,32.00
2022-12-18T13:46:31.969Z,32.30
2022-12-18T13:49:43.452Z,32.20
2022-12-18T13:52:36.555Z,32.00
2022-12-18T13:55:08.784Z,31.80
2022-12-18T13:57:39.772Z,31.50
2022-12-18T14:00:28.277Z,31.30
2022-12-18T14:02:58.596Z,31.40
2022-12-18T14:05:28.439Z,31.50
2022-12-18T14:08:02.405Z,31.90
2022-12-18T14:10:48.677Z,32.00
2022-12-18T14:13:35.469Z,32.00
2022-12-18T14:16:06.063Z,32.20
2022-12-18T14:18:44.479Z,32.20
2022-12-18T14:21:32.045Z,31.80
2022-12-18T14:24:29.439Z,31.70
2022-12-18T14:27:20.992Z,31.80
2022-12-18T14:29:49.463Z,31.80
2022-12-18T14:32:22.251Z,31.70
2022-12-18T14:34:53.438Z,31.80
2022-12-18T14:37:27.213Z,31.30
2022-12-18T14:40:02.125Z,31.30
2022-12-18T14:42:34.257Z,31.30
2022-12-18T14:45:42.604Z,31.30
2022-12-18T14:48:42.255Z,31.30
2022-12-18T14:51:22.436Z,31.60
2022-12-18T14:53:59.471Z,31.60
2022-12-18T14:56:33.710Z,31.20
2022-12-18T14:59:04.758Z,31.00
2022-12-18T15:01:39.491Z,31.00
2022-12-18T15:04:29.906Z,31.30
2022-12-18T15:07:16.272Z,31.60
2022-12-18T15:10:24.289Z,31.70
2022-12-18T15:13:11.551Z,31.60
2022-12-18T15:15:39.852Z,31.20
2022-12-18T15:18:10.713Z,31.10
2022-12-18T15:20:41.832Z,30.90
2022-12-18T15:23:38.403Z,31.30
2022-12-18T15:26:12.784Z,31.60
2022-12-18T15:28:59.728Z,31.70
2022-12-18T15:31:35.554Z,31.60
2022-12-18T15:34:21.582Z,31.10
2022-12-18T15:36:52.001Z,30.90
2022-12-18T15:39:20.276Z,30.80
2022-12-18T15:41:48.536Z,31.30
2022-12-18T15:44:25.670Z,31.40
2022-12-18T15:46:53.909Z,31.70
2022-12-18T15:49:24.952Z,31.30
2022-12-18T15:52:00.406Z,31.10
2022-12-18T15:54:28.979Z,30.80
2022-12-18T15:56:57.240Z,30.60
2022-12-18T15:59:27.088Z,30.80
2022-12-18T16:01:55.525Z,30.90
2022-12-18T16:04:24.540Z,31.00
2022-12-18T16:09:41.737Z,31.10
2022-12-18T16:12:36.825Z,30.70
2022-12-18T16:15:07.056Z,30.60
2022-12-18T16:17:35.801Z,30.50
2022-12-18T16:20:04.433Z,30.70
2022-12-18T16:22:32.770Z,31.00
2022-12-18T16:25:01.022Z,31.10
2022-12-18T16:27:29.297Z,31.20
2022-12-18T16:29:57.616Z,30.90
2022-12-18T16:32:25.832Z,30.60
2022-12-18T16:34:53.996Z,30.50
2022-12-18T16:37:22.300Z,30.40
2022-12-18T16:39:50.570Z,30.40
2022-12-18T16:42:20.888Z,30.80
2022-12-18T16:44:50.902Z,31.00
2022-12-18T16:47:19.852Z,30.90
2022-12-18T16:49:48.382Z,30.90
2022-12-18T16:52:18.284Z,30.60
2022-12-18T16:54:46.600Z,30.30
2022-12-18T16:57:18.433Z,30.10
2022-12-18T16:59:47.764Z,30.10
2022-12-18T17:02:22.823Z,30.40
2022-12-18T17:04:55.388Z,30.60
2022-12-18T17:07:24.328Z,30.70
2022-12-18T17:09:52.730Z,30.70
2022-12-18T17:12:21.531Z,30.50
2022-12-18T17:14:51.577Z,30.20
2022-12-18T17:17:22.265Z,29.90
2022-12-18T17:19:52.754Z,29.80
2022-12-18T17:22:22.407Z,30.10
2022-12-18T17:24:50.705Z,30.60
2022-12-18T17:27:19.264Z,30.80
2022-12-18T17:29:48.793Z,30.70
2022-12-18T17:32:18.557Z,30.60
2022-12-18T17:34:47.414Z,29.90
2022-12-18T17:37:15.715Z,29.70
2022-12-18T17:39:43.950Z,29.60
2022-12-18T17:42:14.880Z,29.80
2022-12-18T17:44:44.584Z,30.00
2022-12-18T17:47:13.815Z,30.20
2022-12-18T17:49:42.187Z,30.20
2022-12-18T17:52:10.912Z,29.80
2022-12-18T17:54:39.352Z,29.50
2022-12-18T17:57:09.605Z,29.40
2022-12-18T17:59:38.105Z,29.30
2022-12-18T18:02:06.500Z,29.60
2022-12-18T18:04:34.852Z,29.90
2022-12-18T18:07:03.158Z,30.00
2022-12-18T18:09:32.383Z,29.90
2022-12-18T18:12:00.601Z,29.50
2022-12-18T18:14:29.062Z,29.20
2022-12-18T18:16:59.197Z,29.00
2022-12-18T18:19:33.632Z,29.20
2022-12-18T18:22:02.153Z,29.40
2022-12-18T18:24:33.666Z,29.60
2022-12-18T18:27:01.971Z,29.70
2022-12-18T18:29:30.776Z,29.20
2022-12-18T18:31:59.539Z,29.00
2022-12-18T18:34:29.889Z,28.80
2022-12-18T18:36:58.623Z,28.70
2022-12-18T18:39:27.623Z,29.10
2022-12-18T18:41:56.191Z,29.20
2022-12-18T18:44:25.843Z,29.40
2022-12-18T18:46:56.308Z,29.40
2022-12-18T18:49:26.633Z,29.00
2022-12-18T18:51:56.261Z,28.70
2022-12-18T18:54:25.154Z,28.50
2022-12-18T18:57:19.467Z,28.70
2022-12-18T18:59:41.794Z,29.10
2022-12-18T19:02:18.659Z,29.10
2022-12-18T19:04:47.355Z,29.40
2022-12-18T19:07:26.142Z,29.00
2022-12-18T19:10:04.459Z,28.70
2022-12-18T19:12:34.614Z,28.50
2022-12-18T19:15:06.122Z,28.40
2022-12-18T19:17:34.426Z,28.80
2022-12-18T19:20:04.744Z,29.00
2022-12-18T19:22:33.084Z,29.30
2022-12-18T19:25:01.325Z,29.10
2022-12-18T19:27:29.635Z,28.80
2022-12-18T19:29:57.845Z,28.50
2022-12-18T19:32:26.397Z,28.40
2022-12-18T19:34:54.804Z,28.80
2022-12-18T19:37:23.374Z,28.90
2022-12-18T19:39:51.902Z,29.00
2022-12-18T19:42:25.514Z,29.10
2022-12-18T19:44:56.482Z,28.70
2022-12-18T19:47:24.847Z,28.50
2022-12-18T19:49:53.029Z,28.40
2022-12-18T19:52:21.496Z,28.60
2022-12-18T19:54:49.716Z,28.70
2022-12-18T19:57:18.130Z,28.90
2022-12-18T19:59:46.525Z,29.10
2022-12-18T20:02:16.691Z,28.80
2022-12-18T20:04:45.394Z,28.60
2022-12-18T20:07:13.932Z,28.40
2022-12-18T20:09:42.432Z,28.30
2022-12-18T20:12:11.787Z,28.60
2022-12-18T20:14:40.159Z,28.80
2022-12-18T20:17:08.395Z,29.00
2022-12-18T20:19:37.675Z,29.10
2022-12-18T20:22:06.425Z,28.80
2022-12-18T20:24:35.096Z,28.50
2022-12-18T20:27:03.669Z,28.40
2022-12-18T20:29:31.944Z,28.30
2022-12-18T20:32:01.066Z,28.80
2022-12-18T20:34:29.343Z,29.00
2022-12-18T20:36:57.799Z,29.20
2022-12-18T20:39:26.321Z,29.10
2022-12-18T20:41:55.441Z,28.90
2022-12-18T20:44:24.222Z,28.70
2022-12-18T20:46:58.167Z,28.50
2022-12-18T20:49:27.840Z,28.40
2022-12-18T20:51:58.390Z,28.80
2022-12-18T20:54:28.438Z,29.10
2022-12-18T20:56:57.585Z,29.30
2022-12-18T20:59:26.156Z,29.20
2022-12-18T21:01:55.057Z,28.90
2022-12-18T21:04:24.280Z,28.70
2022-12-18T21:07:00.531Z,28.60
2022-12-18T21:09:37.929Z,28.60
2022-12-18T21:12:14.035Z,29.00
2022-12-18T21:14:43.287Z,29.20
2022-12-18T21:17:12.016Z,29.40
2022-12-18T21:19:40.367Z,29.10
2022-12-18T21:22:10.313Z,28.80
2022-12-18T21:24:38.972Z,28.60
2022-12-18T21:27:07.153Z,28.50
2022-12-18T21:29:35.503Z,28.80
2022-12-18T21:32:05.053Z,29.10
2022-12-18T21:34:33.855Z,29.30
2022-12-18T21:37:02.848Z,29.30
2022-12-18T21:39:31.898Z,28.90
2022-12-18T21:42:00.520Z,28.70
2022-12-18T21:44:28.985Z,28.60
2022-12-18T21:47:04.555Z,28.70
2022-12-18T21:49:40.734Z,28.90
2022-12-18T21:52:11.544Z,29.10
2022-12-18T21:54:39.857Z,29.30
2022-12-18T21:57:08.220Z,29.10
2022-12-18T21:59:38.803Z,28.70
2022-12-18T22:02:18.988Z,28.50
2022-12-18T22:04:47.772Z,28.40
2022-12-18T22:07:17.262Z,28.60
2022-12-18T22:09:45.708Z,29.00
2022-12-18T22:12:16.745Z,29.20
2022-12-18T22:14:44.947Z,29.30
2022-12-18T22:17:13.286Z,29.00
2022-12-18T22:19:43.095Z,28.50
2022-12-18T22:22:11.538Z,28.30
2022-12-18T22:24:40.004Z,28.20
2022-12-18T22:27:09.805Z,28.50
2022-12-18T22:29:38.582Z,28.80
2022-12-18T22:32:09.744Z,29.00
2022-12-18T22:34:40.221Z,29.00
2022-12-18T22:37:10.189Z,28.70
2022-12-18T22:39:38.409Z,28.40
2022-12-18T22:42:07.312Z,28.30
2022-12-18T22:44:35.871Z,28.30
2022-12-18T22:47:06.278Z,28.50
2022-12-18T22:49:36.040Z,28.70
2022-12-18T22:52:06.950Z,28.90
2022-12-18T22:54:35.528Z,28.80
2022-12-18T22:57:03.865Z,28.50
2022-12-18T22:59:32.090Z,28.40
2022-12-18T23:02:00.359Z,28.20
2022-12-18T23:04:36.018Z,28.30
2022-12-18T23:07:05.887Z,28.60
2022-12-18T23:09:34.754Z,28.60
2022-12-18T23:12:03.337Z,28.80
2022-12-18T23:14:31.967Z,28.60
2022-12-18T23:17:00.344Z,28.30
2022-12-18T23:19:28.474Z,28.20
2022-12-18T23:21:56.695Z,28.20
2022-12-18T23:24:27.364Z,28.40
2022-12-18T23:26:57.230Z,28.80
2022-12-18T23:29:25.478Z,28.90
2022-12-18T23:31:53.728Z,28.90
2022-12-18T23:34:22.148Z,28.60
2022-12-18T23:36:54.589Z,28.40
2022-12-18T23:39:29.277Z,28.30
2022-12-18T23:42:01.464Z,28.20
2022-12-18T23:44:29.831Z,28.50
2022-12-18T23:46:57.974Z,28.70
2022-12-18T23:49:26.228Z,28.90
2022-12-18T23:51:55.828Z,29.00
2022-12-18T23:54:32.689Z,28.70
2022-12-18T23:57:01.889Z,28.50
2022-12-18T23:59:30.110Z,28.40
